Time;durP1;ratioP1;P1;durP2;ratioP2;P2;SDS_P1;SDS_P2;PMS_P1;PMS_P2;Temp;Humidity;BMP_temperature;BMP_pressure;BME280_temperature;BME280_humidity;BME280_pressure;Samples;Min_cycle;Max_cycle;Signal;HPM_P1;HPM_P2
2021/07/25 00:01:23;;;;;;;;;13.75;11.75;;;;;30.75;29.78;100902.50;144163;586;133910;-64
2021/07/25 00:04:16;;;;;;;;;13.00;12.00;;;;;30.82;29.83;100904.31;144170;641;132008;-66
2021/07/25 00:07:08;;;;;;;;;13.00;12.00;;;;;30.84;29.63;100910.44;144153;612;132012;-65
2021/07/25 00:10:01;;;;;;;;;11.50;11.50;;;;;30.73;30.08;100913.50;144155;571;132008;-65
2021/07/25 00:12:53;;;;;;;;;12.50;12.00;;;;;30.76;30.32;100902.31;144156;605;131016;-65
2021/07/25 00:15:46;;;;;;;;;16.25;16.25;;;;;30.69;30.23;100899.44;144168;606;132020;-64
2021/07/25 00:18:39;;;;;;;;;17.25;17.25;;;;;29.42;33.09;100892.41;144153;687;132010;-62
2021/07/25 00:21:31;;;;;;;;;15.75;14.00;;;;;30.71;29.96;100897.44;144176;598;131021;-63
2021/07/25 00:24:30;;;;;;;;;13.50;13.00;;;;;30.74;29.89;100907.03;144149;596;132012;-62
2021/07/25 00:27:27;;;;;;;;;14.50;13.75;;;;;30.70;30.09;100894.84;144176;615;131020;-62
2021/07/25 00:30:20;;;;;;;;;13.00;13.00;;;;;30.59;30.52;100903.34;144169;576;131912;-61
2021/07/25 00:33:16;;;;;;;;;15.50;15.50;;;;;30.83;30.50;100899.78;144178;575;131008;-61
2021/07/25 00:36:09;;;;;;;;;13.25;13.25;;;;;30.93;30.73;100897.72;144154;601;132011;-61
2021/07/25 00:39:32;;;;;;;;;15.75;15.00;;;;;30.92;30.94;100895.16;144162;591;131020;-64
2021/07/25 00:42:24;;;;;;;;;15.75;12.75;;;;;30.71;30.94;100897.44;144159;571;132010;-62
2021/07/25 00:45:16;;;;;;;;;19.00;15.25;;;;;30.36;31.56;100898.59;144181;623;131020;-62
2021/07/25 00:48:09;;;;;;;;;11.50;11.50;;;;;30.16;31.45;100898.88;144159;582;131016;-64
2021/07/25 00:51:04;;;;;;;;;12.25;11.25;;;;;30.07;31.31;100893.63;144168;634;131020;-62
2021/07/25 00:53:57;;;;;;;;;12.50;12.50;;;;;30.06;31.67;100890.09;144149;584;132010;-64
2021/07/25 00:56:49;;;;;;;;;11.25;11.25;;;;;30.34;31.06;100889.78;144171;660;132008;-62
2021/07/25 00:59:41;;;;;;;;;18.00;12.25;;;;;30.32;31.34;100892.66;144168;658;131016;-68
2021/07/25 01:02:39;;;;;;;;;11.75;11.75;;;;;30.18;31.17;100896.88;144167;589;132008;-67
2021/07/25 01:05:47;;;;;;;;;18.00;14.75;;;;;29.96;31.63;100898.34;144154;610;131017;-66
2021/07/25 01:09:02;;;;;;;;;18.50;16.25;;;;;30.31;31.21;100907.19;144157;596;131020;-65
2021/07/25 01:12:01;;;;;;;;;14.00;11.50;;;;;30.35;31.00;100894.19;144145;617;132013;-67
2021/07/25 01:14:54;;;;;;;;;15.00;14.75;;;;;29.62;31.97;100901.94;144178;563;131020;-68
2021/07/25 01:17:46;;;;;;;;;15.00;14.25;;;;;29.49;32.00;100906.97;144127;617;140010;-67
2021/07/25 01:20:38;;;;;;;;;12.75;11.00;;;;;29.58;32.04;100900.59;144166;591;132008;-67
2021/07/25 01:23:35;;;;;;;;;16.75;15.75;;;;;29.45;32.75;100911.84;144151;616;132012;-67
2021/07/25 01:26:38;;;;;;;;;10.50;10.50;;;;;29.89;31.79;100905.44;144179;610;131021;-67
2021/07/25 01:29:33;;;;;;;;;13.75;11.00;;;;;29.95;31.63;100896.66;144160;600;132010;-65
2021/07/25 01:32:25;;;;;;;;;11.75;11.00;;;;;29.87;31.99;100902.88;144173;649;132008;-65
2021/07/25 01:35:19;;;;;;;;;16.00;14.75;;;;;29.81;32.15;100908.94;144145;566;132012;-64
2021/07/25 01:38:11;;;;;;;;;13.25;12.00;;;;;29.74;32.82;100898.94;144151;614;132012;-64
2021/07/25 01:41:11;;;;;;;;;14.75;12.50;;;;;30.15;32.04;100905.31;144149;606;131017;-66
2021/07/25 01:44:04;;;;;;;;;13.25;11.75;;;;;30.43;31.52;100912.28;144175;603;132008;-66
2021/07/25 01:46:56;;;;;;;;;11.00;10.50;;;;;30.39;31.56;100914.50;144148;615;132010;-65
2021/07/25 01:49:48;;;;;;;;;14.50;14.00;;;;;30.33;31.55;100915.16;144175;575;131021;-65
2021/07/25 01:52:40;;;;;;;;;11.00;9.00;;;;;30.37;31.74;100911.94;144153;612;131016;-68
2021/07/25 01:55:32;;;;;;;;;16.25;16.00;;;;;30.28;31.71;100922.91;144177;576;131021;-65
2021/07/25 01:58:24;;;;;;;;;11.00;11.00;;;;;30.15;31.83;100924.25;144170;665;131913;-68
2021/07/25 02:01:16;;;;;;;;;16.00;12.00;;;;;30.14;31.97;100927.12;144181;573;131020;-64
2021/07/25 02:04:11;;;;;;;;;12.00;11.25;;;;;30.27;31.45;100922.09;144157;674;131017;-64
2021/07/25 02:07:03;;;;;;;;;13.25;13.25;;;;;29.77;32.04;100922.94;144160;633;131020;-65
2021/07/25 02:09:55;;;;;;;;;15.75;14.25;;;;;29.86;32.13;100925.53;144155;646;132010;-64
2021/07/25 02:12:47;;;;;;;;;18.50;16.50;;;;;29.78;32.16;100932.75;144174;615;132008;-67
2021/07/25 02:15:40;;;;;;;;;16.25;14.50;;;;;29.92;31.65;100928.59;144153;600;131912;-66
2021/07/25 02:18:31;;;;;;;;;11.00;10.75;;;;;29.81;31.54;100927.88;144175;697;132008;-66
2021/07/25 02:21:24;;;;;;;;;15.00;12.25;;;;;29.91;31.66;100926.91;144151;618;131016;-67
2021/07/25 02:24:16;;;;;;;;;10.50;10.50;;;;;29.90;31.68;100925.25;144172;563;132008;-67
2021/07/25 02:27:08;;;;;;;;;16.50;15.50;;;;;29.90;31.84;100922.53;144164;595;132010;-67
2021/07/25 02:30:01;;;;;;;;;15.50;15.50;;;;;29.93;31.80;100914.06;144174;606;132008;-66
2021/07/25 02:32:53;;;;;;;;;12.25;12.25;;;;;29.86;32.34;100914.72;144155;714;131017;-67
2021/07/25 02:35:45;;;;;;;;;12.50;11.00;;;;;29.76;32.21;100913.12;144155;599;132008;-67
2021/07/25 02:38:37;;;;;;;;;13.25;13.25;;;;;29.68;32.15;100906.69;144160;600;131016;-67
2021/07/25 02:41:30;;;;;;;;;11.00;10.75;;;;;29.65;32.46;100911.56;144174;617;131024;-65
2021/07/25 02:44:22;;;;;;;;;11.25;11.25;;;;;29.75;32.42;100917.69;144146;602;132010;-67
2021/07/25 02:47:15;;;;;;;;;15.00;14.50;;;;;29.15;33.50;100918.56;144169;647;132008;-66
2021/07/25 02:50:07;;;;;;;;;11.00;11.00;;;;;29.17;33.46;100919.25;144148;588;131913;-67
2021/07/25 02:53:00;;;;;;;;;12.25;12.25;;;;;29.33;33.04;100918.53;144170;594;131020;-67
2021/07/25 02:55:52;;;;;;;;;12.50;12.50;;;;;29.20;33.71;100929.75;144163;564;132010;-67
2021/07/25 02:58:56;;;;;;;;;13.25;12.00;;;;;29.72;33.04;100936.97;144166;565;132008;-65
2021/07/25 03:01:50;;;;;;;;;13.50;13.50;;;;;29.75;32.58;100942.06;144156;594;131913;-64
2021/07/25 03:04:45;;;;;;;;;15.00;15.00;;;;;29.75;32.45;100950.16;144158;724;131023;-63
2021/07/25 03:07:37;;;;;;;;;16.25;14.25;;;;;29.26;33.75;100942.66;144151;563;132010;-64
2021/07/25 03:10:29;;;;;;;;;13.50;12.25;;;;;29.93;32.64;100943.84;144175;581;131050;-64
2021/07/25 03:13:21;;;;;;;;;13.50;12.00;;;;;29.90;32.62;100947.72;144150;590;132912;-65
2021/07/25 03:16:13;;;;;;;;;16.75;15.50;;;;;29.71;33.08;100948.81;144169;696;132008;-64
2021/07/25 03:19:28;;;;;;;;;13.25;13.00;;;;;29.92;32.29;100947.56;144147;590;134010;-64
2021/07/25 03:22:22;;;;;;;;;19.50;14.00;;;;;30.25;32.23;100956.63;144168;570;132008;-64
2021/07/25 03:25:16;;;;;;;;;14.25;14.25;;;;;30.20;31.95;100970.62;144168;572;131016;-64
2021/07/25 03:28:08;;;;;;;;;14.00;14.00;;;;;30.05;32.53;100975.84;144173;628;132049;-64
2021/07/25 03:31:00;;;;;;;;;16.75;13.25;;;;;30.25;31.90;100978.28;144153;639;131912;-64
2021/07/25 03:34:02;;;;;;;;;17.00;15.75;;;;;29.66;33.42;100978.19;144160;565;131021;-63
2021/07/25 03:36:54;;;;;;;;;14.75;14.75;;;;;29.95;33.02;100976.97;144154;605;132012;-64
2021/07/25 03:39:48;;;;;;;;;19.00;15.75;;;;;30.18;32.55;100974.53;144172;655;132008;-63
2021/07/25 03:42:41;;;;;;;;;15.00;14.25;;;;;30.09;32.50;100979.06;144154;661;131912;-63
2021/07/25 03:45:33;;;;;;;;;13.75;13.75;;;;;30.19;32.31;100963.50;144170;587;132012;-64
2021/07/25 03:48:26;;;;;;;;;16.00;15.00;;;;;30.37;32.43;100979.66;144151;563;132010;-64
2021/07/25 03:51:18;;;;;;;;;16.50;15.00;;;;;30.45;32.21;100984.25;144179;578;131008;-64
2021/07/25 03:54:11;;;;;;;;;14.00;13.25;;;;;30.67;32.07;100992.75;144165;569;131017;-65
2021/07/25 03:57:03;;;;;;;;;19.75;17.25;;;;;30.14;33.06;100987.56;144174;564;132008;-67
2021/07/25 03:59:55;;;;;;;;;12.75;12.75;;;;;30.66;32.17;100997.31;144150;597;131912;-66
2021/07/25 04:02:47;;;;;;;;;15.25;15.25;;;;;30.51;32.44;101005.25;144160;564;131021;-66
2021/07/25 04:05:40;;;;;;;;;14.50;14.50;;;;;30.28;32.76;100998.72;144152;569;131016;-65
2021/07/25 04:08:32;;;;;;;;;13.75;13.75;;;;;30.31;32.96;101001.12;144171;569;131021;-64
2021/07/25 04:11:24;;;;;;;;;15.00;14.50;;;;;30.31;33.15;101006.56;144156;609;132032;-64
2021/07/25 04:14:16;;;;;;;;;20.50;17.50;;;;;30.04;33.78;101008.50;144172;583;131020;-64
2021/07/25 04:17:09;;;;;;;;;21.25;16.50;;;;;30.03;33.76;101004.06;144148;585;132010;-67
2021/07/25 04:20:01;;;;;;;;;15.25;15.25;;;;;30.13;33.77;100999.37;144172;636;132008;-65
2021/07/25 04:22:53;;;;;;;;;14.75;14.75;;;;;30.23;33.78;101014.66;144163;587;132013;-65
2021/07/25 04:25:45;;;;;;;;;17.25;14.75;;;;;30.02;34.31;101015.94;144170;618;132008;-66
2021/07/25 04:28:38;;;;;;;;;18.25;17.25;;;;;30.27;33.75;101002.47;144152;650;132010;-66
2021/07/25 04:31:31;;;;;;;;;15.25;13.75;;;;;30.47;33.87;101013.88;144160;574;132008;-67
2021/07/25 04:34:24;;;;;;;;;17.00;15.75;;;;;30.68;33.71;101008.00;144158;580;131016;-66
2021/07/25 04:37:30;;;;;;;;;17.00;17.00;;;;;30.71;33.89;101027.47;144170;676;132008;-67
2021/07/25 04:40:26;;;;;;;;;13.50;13.50;;;;;30.68;33.90;101024.25;144153;647;131913;-68
2021/07/25 04:43:21;;;;;;;;;15.75;15.50;;;;;30.64;33.94;101026.44;144178;586;131020;-67
2021/07/25 04:46:32;;;;;;;;;18.25;16.00;;;;;30.61;34.27;101025.94;144156;699;132027;-68
2021/07/25 04:49:27;;;;;;;;;15.75;15.00;;;;;31.14;33.65;101027.34;144179;563;131020;-66
2021/07/25 04:52:24;;;;;;;;;16.50;15.75;;;;;31.14;33.92;101037.31;144168;662;132010;-66
2021/07/25 04:55:17;;;;;;;;;17.75;14.50;;;;;30.89;34.46;101046.28;144174;607;132008;-66
2021/07/25 04:58:11;;;;;;;;;14.25;13.75;;;;;31.04;34.28;101042.91;144146;580;132012;-65
2021/07/25 05:01:05;;;;;;;;;18.50;16.50;;;;;30.97;34.30;101029.16;144157;564;131021;-65
2021/07/25 05:03:58;;;;;;;;;18.50;15.25;;;;;30.99;34.60;101029.84;144152;598;131912;-65
2021/07/25 05:06:50;;;;;;;;;16.75;16.75;;;;;31.60;33.63;101040.34;144168;565;132012;-66
2021/07/25 05:09:44;;;;;;;;;21.00;18.25;;;;;31.82;33.42;101040.63;144152;589;132016;-65
2021/07/25 05:13:15;;;;;;;;;15.00;14.00;;;;;31.67;33.28;101037.78;144168;571;131020;-66
2021/07/25 05:16:10;;;;;;;;;18.75;17.50;;;;;31.85;33.03;101042.97;144154;613;132010;-67
2021/07/25 05:19:39;;;;;;;;;19.75;18.25;;;;;31.54;33.81;101039.12;144174;680;132008;-67
2021/07/25 05:23:17;;;;;;;;;15.75;15.75;;;;;32.04;32.91;101045.28;144167;570;131024;-67
2021/07/25 05:26:13;;;;;;;;;21.00;21.00;;;;;32.35;33.08;101051.78;144167;607;132008;-65
2021/07/25 05:29:06;;;;;;;;;20.00;18.50;;;;;32.33;33.22;101048.41;144150;570;132013;-66
2021/07/25 05:31:58;;;;;;;;;19.25;17.25;;;;;32.71;32.92;101052.09;144158;703;132008;-67
2021/07/25 05:34:51;;;;;;;;;17.50;16.50;;;;;32.76;32.64;101059.69;144154;586;131016;-68
2021/07/25 05:37:43;;;;;;;;;18.75;18.75;;;;;32.76;32.30;101059.69;144175;582;132009;-66
2021/07/25 05:40:35;;;;;;;;;16.25;16.25;;;;;33.02;31.92;101055.78;144159;570;131016;-66
2021/07/25 05:43:27;;;;;;;;;20.25;18.25;;;;;33.27;31.63;101058.31;144177;586;131008;-67
2021/07/25 05:46:20;;;;;;;;;15.75;15.75;;;;;33.19;31.25;101060.03;144153;661;131913;-66
2021/07/25 05:49:12;;;;;;;;;14.50;14.00;;;;;33.23;30.77;101064.09;144170;614;131020;-66
2021/07/25 05:52:04;;;;;;;;;13.25;13.25;;;;;33.12;30.96;101066.38;144167;601;131017;-69
2021/07/25 05:54:56;;;;;;;;;15.50;15.50;;;;;33.04;31.05;101079.03;144173;573;132008;-68
2021/07/25 05:57:48;;;;;;;;;15.00;13.00;;;;;32.81;31.97;101081.75;144155;620;131016;-70
2021/07/25 06:00:41;;;;;;;;;15.00;13.75;;;;;32.79;32.31;101083.78;144156;588;132008;-70
2021/07/25 06:03:33;;;;;;;;;13.75;13.75;;;;;33.04;32.13;101079.03;144149;715;132016;-68
2021/07/25 06:06:25;;;;;;;;;12.75;12.75;;;;;33.34;31.99;101075.56;144174;566;131012;-68
2021/07/25 06:09:17;;;;;;;;;15.00;14.75;;;;;33.53;31.94;101077.78;144147;579;132010;-70
2021/07/25 06:12:12;;;;;;;;;15.50;14.50;;;;;33.55;32.06;101075.69;144168;600;131020;-71
2021/07/25 06:15:05;;;;;;;;;13.00;13.00;;;;;33.89;31.29;101076.22;144148;658;132012;-69
2021/07/25 06:17:56;;;;;;;;;13.00;11.00;;;;;33.79;31.06;101081.97;144176;611;132008;-67
2021/07/25 06:20:49;;;;;;;;;14.00;13.00;;;;;33.83;31.36;101080.56;144166;579;131017;-69
2021/07/25 06:23:41;;;;;;;;;10.25;10.25;;;;;34.03;31.12;101077.25;144171;586;132008;-66
2021/07/25 06:26:33;;;;;;;;;15.75;15.75;;;;;33.49;32.35;101083.75;144155;592;131016;-65
2021/07/25 06:29:25;;;;;;;;;17.75;17.00;;;;;34.04;30.81;101087.13;144157;573;132008;-65
2021/07/25 06:32:17;;;;;;;;;14.75;14.50;;;;;34.08;30.62;101081.09;144156;611;132028;-66
2021/07/25 06:35:12;;;;;;;;;14.75;14.75;;;;;34.07;29.96;101084.00;144166;569;132012;-69
2021/07/25 06:38:18;;;;;;;;;11.25;11.25;;;;;34.16;30.20;101082.00;144148;607;132010;-66
2021/07/25 06:41:10;;;;;;;;;11.75;10.25;;;;;32.77;32.22;101088.59;144166;610;132012;-70
2021/07/25 06:44:02;;;;;;;;;12.00;11.25;;;;;32.35;33.04;101092.53;144147;575;132013;-71
2021/07/25 06:46:54;;;;;;;;;13.75;13.75;;;;;32.92;32.83;101085.94;144170;641;132008;-68
2021/07/25 06:49:46;;;;;;;;;12.50;11.25;;;;;33.00;32.17;101088.59;144166;570;131030;-67
2021/07/25 06:52:39;;;;;;;;;11.00;11.00;;;;;33.11;31.75;101083.72;144171;564;131021;-68
2021/07/25 06:55:33;;;;;;;;;10.50;10.50;;;;;33.10;31.80;101085.63;144153;634;132010;-69
2021/07/25 06:58:25;;;;;;;;;14.00;13.00;;;;;32.84;32.64;101088.72;144158;564;132009;-69
2021/07/25 07:01:17;;;;;;;;;9.50;9.50;;;;;33.42;31.49;101080.94;144151;799;132010;-69
2021/07/25 07:04:27;;;;;;;;;13.25;12.75;;;;;32.81;32.25;101089.91;144167;668;132012;-68
2021/07/25 07:07:19;;;;;;;;;13.00;12.00;;;;;32.41;32.44;101100.00;144152;581;132012;-66
2021/07/25 07:10:12;;;;;;;;;15.75;14.00;;;;;33.13;31.90;101093.41;144172;665;132012;-68
2021/07/25 07:13:08;;;;;;;;;16.75;14.00;;;;;32.20;32.74;101098.69;144147;631;132013;-66
2021/07/25 07:16:00;;;;;;;;;13.50;13.50;;;;;33.22;31.62;101084.16;144172;593;132020;-68
2021/07/25 07:18:53;;;;;;;;;10.00;10.00;;;;;34.16;30.57;101088.31;144162;588;132010;-68
2021/07/25 07:21:45;;;;;;;;;12.25;11.75;;;;;33.04;30.89;101087.19;144170;626;131021;-67
2021/07/25 07:24:37;;;;;;;;;18.00;16.00;;;;;32.40;32.17;101095.56;144148;571;132012;-67
2021/07/25 07:27:30;;;;;;;;;11.25;11.25;;;;;33.73;30.18;101093.56;144157;555;131020;-67
2021/07/25 07:30:23;;;;;;;;;8.50;7.25;;;;;31.76;33.14;101073.91;144149;598;132016;-67
2021/07/25 07:33:20;;;;;;;;;13.50;13.50;;;;;32.01;33.63;101099.09;144175;592;131020;-68
2021/07/25 07:36:12;;;;;;;;;14.00;12.50;;;;;31.72;34.67;101100.53;144161;576;131013;-69
2021/07/25 07:39:04;;;;;;;;;12.50;12.50;;;;;32.26;34.35;101105.31;144171;579;132012;-68
2021/07/25 07:41:56;;;;;;;;;10.25;10.00;;;;;32.15;34.64;101094.81;144149;573;132010;-69
2021/07/25 07:44:48;;;;;;;;;13.25;13.25;;;;;32.54;33.83;101102.94;144179;697;131021;-68
2021/07/25 07:47:41;;;;;;;;;12.00;12.00;;;;;32.46;34.12;101104.87;144164;599;132025;-67
2021/07/25 07:50:34;;;;;;;;;12.00;12.00;;;;;31.44;35.29;101100.88;144170;578;131996;-67
2021/07/25 07:53:26;;;;;;;;;11.00;11.00;;;;;31.10;36.12;101103.75;144156;587;131017;-67
2021/07/25 07:56:18;;;;;;;;;15.75;13.50;;;;;31.71;34.35;101098.81;144155;624;131047;-67
2021/07/25 07:59:11;;;;;;;;;12.25;11.75;;;;;31.56;35.02;101101.34;144151;564;131913;-68
2021/07/25 08:02:03;;;;;;;;;14.00;11.25;;;;;32.36;32.53;101103.22;144169;729;132012;-68
2021/07/25 08:04:57;;;;;;;;;13.00;11.50;;;;;32.72;32.25;101104.56;144154;588;131919;-67
2021/07/25 08:07:49;;;;;;;;;12.50;11.75;;;;;32.54;31.51;101097.50;144171;669;131021;-67
2021/07/25 08:10:41;;;;;;;;;11.25;11.25;;;;;32.79;31.60;101091.94;144157;634;132010;-66
2021/07/25 08:13:34;;;;;;;;;17.00;12.50;;;;;31.54;33.79;101096.09;144176;648;132008;-67
2021/07/25 08:16:26;;;;;;;;;12.00;12.00;;;;;32.42;31.21;101100.81;144161;595;132012;-67
2021/07/25 08:19:21;;;;;;;;;9.50;9.50;;;;;32.05;31.24;101101.28;144172;631;132008;-67
2021/07/25 08:22:13;;;;;;;;;9.25;9.25;;;;;32.94;29.34;101092.00;144157;640;132010;-67
2021/07/25 08:25:06;;;;;;;;;14.50;13.50;;;;;32.10;30.30;101103.47;144161;587;131020;-68
2021/07/25 08:27:58;;;;;;;;;10.75;10.75;;;;;32.31;29.85;101093.91;144152;650;132011;-68
2021/07/25 08:30:51;;;;;;;;;13.50;12.75;;;;;32.34;29.47;101085.41;144174;574;131020;-66
2021/07/25 08:33:43;;;;;;;;;13.50;13.25;;;;;33.31;29.14;101078.66;144154;634;131912;-68
2021/07/25 08:36:35;;;;;;;;;14.50;14.00;;;;;32.29;29.24;101080.50;144175;602;131021;-67
2021/07/25 08:39:27;;;;;;;;;9.50;9.50;;;;;32.28;28.75;101084.25;144156;593;131912;-68
2021/07/25 08:42:19;;;;;;;;;11.25;11.25;;;;;32.46;28.89;101080.41;144174;630;131020;-67
2021/07/25 08:45:13;;;;;;;;;11.00;11.00;;;;;33.48;27.72;101073.94;144162;593;132010;-67
2021/07/25 08:48:13;;;;;;;;;13.00;12.50;;;;;34.16;26.04;101077.44;144166;573;132012;-68
2021/07/25 08:51:10;;;;;;;;;7.75;7.75;;;;;33.19;28.25;101076.38;144153;706;132011;-66
2021/07/25 08:54:07;;;;;;;;;11.25;10.25;;;;;32.62;29.89;101087.66;144160;584;131020;-67
2021/07/25 08:57:03;;;;;;;;;12.25;11.00;;;;;32.34;30.17;101083.56;144152;564;132011;-68
2021/07/25 08:59:59;;;;;;;;;11.25;10.00;;;;;32.30;30.67;101084.06;144177;565;131020;-68
2021/07/25 09:02:53;;;;;;;;;15.75;13.75;;;;;32.09;30.86;101084.66;144157;598;132026;-66
2021/07/25 09:05:46;;;;;;;;;10.00;10.00;;;;;31.89;30.70;101083.19;144172;578;131012;-68
2021/07/25 09:08:40;;;;;;;;;14.00;14.00;;;;;32.90;31.16;101096.12;144152;646;131016;-67
2021/07/25 09:11:32;;;;;;;;;14.25;13.00;;;;;32.37;33.83;101104.91;144170;605;131021;-67
2021/07/25 09:14:24;;;;;;;;;13.00;13.00;;;;;32.26;34.38;101099.03;144169;599;132010;-67
2021/07/25 09:17:17;;;;;;;;;13.00;13.00;;;;;31.89;34.57;101096.75;144170;707;132008;-67
2021/07/25 09:20:45;;;;;;;;;13.00;12.00;;;;;31.91;33.87;101077.56;144153;608;132011;-68
2021/07/25 09:23:37;;;;;;;;;13.50;12.75;;;;;32.79;32.74;101086.50;144154;577;131024;-67
2021/07/25 09:26:29;;;;;;;;;10.00;9.50;;;;;32.86;32.29;101090.22;144148;675;131913;-67
2021/07/25 09:29:22;;;;;;;;;10.00;9.00;;;;;32.93;31.92;101082.19;144174;603;131036;-67
2021/07/25 09:32:19;;;;;;;;;13.50;13.50;;;;;32.96;31.45;101075.53;144157;633;132010;-68
2021/07/25 09:35:42;;;;;;;;;12.50;11.75;;;;;32.69;31.80;101080.47;144173;695;131027;-67
2021/07/25 09:38:34;;;;;;;;;10.00;10.00;;;;;32.98;31.03;101081.63;144154;563;132025;-67
2021/07/25 09:41:29;;;;;;;;;15.50;12.75;;;;;32.18;32.41;101076.31;144176;580;131021;-67
2021/07/25 09:44:22;;;;;;;;;12.00;10.75;;;;;33.09;30.54;101069.47;144168;583;132010;-68
2021/07/25 09:47:41;;;;;;;;;12.00;12.00;;;;;33.31;30.34;101076.81;144179;603;131020;-67
2021/07/25 09:50:33;;;;;;;;;13.25;12.75;;;;;32.80;30.26;101081.94;144153;555;131913;-67
2021/07/25 09:53:25;;;;;;;;;11.50;11.50;;;;;33.47;28.45;101080.41;144153;565;132008;-70
2021/07/25 09:56:20;;;;;;;;;12.00;10.75;;;;;32.99;29.83;101077.91;144157;577;131017;-67
2021/07/25 09:59:39;;;;;;;;;9.00;9.00;;;;;32.87;29.61;101074.75;144175;570;131021;-68
2021/07/25 10:02:43;;;;;;;;;10.25;9.75;;;;;33.21;29.06;101070.75;144148;564;133913;-66
2021/07/25 10:05:35;;;;;;;;;10.00;10.00;;;;;31.99;30.78;101082.97;144172;628;132008;-65
2021/07/25 10:08:28;;;;;;;;;8.00;7.25;;;;;31.68;30.98;101080.19;144153;569;131016;-69
2021/07/25 10:11:24;;;;;;;;;8.75;8.75;;;;;32.05;30.15;101073.28;144181;585;131020;-67
2021/07/25 10:14:22;;;;;;;;;9.25;9.25;;;;;31.66;30.29;101071.37;144167;570;132010;-68
2021/07/25 10:17:15;;;;;;;;;11.75;10.75;;;;;32.30;29.86;101065.03;144168;624;132049;-67
2021/07/25 10:20:12;;;;;;;;;8.00;8.00;;;;;32.81;29.36;101065.44;144158;608;131017;-68
2021/07/25 10:23:05;;;;;;;;;11.00;11.00;;;;;31.91;30.40;101065.88;144158;650;132008;-68
2021/07/25 10:25:59;;;;;;;;;12.00;10.25;;;;;32.35;30.91;101068.09;144157;570;131913;-69
2021/07/25 10:28:51;;;;;;;;;13.75;13.75;;;;;32.59;29.73;101074.37;144177;565;131020;-67
2021/07/25 10:31:46;;;;;;;;;14.50;13.75;;;;;32.55;31.14;101074.75;144151;736;132010;-68
2021/07/25 10:34:40;;;;;;;;;12.00;12.00;;;;;32.90;29.98;101069.81;144169;583;132012;-71
2021/07/25 10:37:32;;;;;;;;;9.25;9.25;;;;;33.22;29.49;101056.94;144151;559;132010;-68
2021/07/25 10:40:27;;;;;;;;;11.00;8.75;;;;;33.41;29.12;101046.63;144171;636;132012;-69
2021/07/25 10:43:20;;;;;;;;;10.00;8.25;;;;;32.91;30.15;101057.03;144169;594;131016;-69
2021/07/25 10:46:22;;;;;;;;;11.50;9.75;;;;;33.21;30.05;101052.53;144176;635;131024;-66
2021/07/25 10:49:19;;;;;;;;;11.75;11.75;;;;;33.88;28.78;101056.31;144150;609;131998;-67
2021/07/25 10:52:11;;;;;;;;;8.25;7.00;;;;;32.80;29.51;101050.16;144160;770;131020;-64
2021/07/25 10:55:03;;;;;;;;;12.00;10.50;;;;;33.87;28.72;101049.19;144154;596;131017;-64
2021/07/25 10:58:20;;;;;;;;;12.25;11.75;;;;;33.16;29.76;101044.09;144176;581;132008;-66
2021/07/25 11:01:12;;;;;;;;;14.25;13.50;;;;;33.60;28.57;101033.47;144150;570;132010;-66
2021/07/25 11:04:05;;;;;;;;;8.50;8.50;;;;;32.95;29.20;101052.09;144176;576;131021;-74
2021/07/25 11:07:37;;;;;;;;;14.50;12.75;;;;;33.28;28.71;101039.06;144156;583;131912;-65
2021/07/25 11:10:39;;;;;;;;;12.00;11.00;;;;;33.80;28.43;101034.63;144173;632;131021;-66
2021/07/25 11:13:46;;;;;;;;;7.00;7.00;;;;;33.53;28.06;101034.25;144166;582;132012;-64
2021/07/25 11:16:45;;;;;;;;;14.25;13.25;;;;;33.26;29.23;101026.69;144169;576;132008;-66
2021/07/25 11:19:57;;;;;;;;;11.00;11.00;;;;;32.80;29.47;101012.09;144153;574;132010;-65
2021/07/25 11:22:50;;;;;;;;;11.00;10.50;;;;;32.89;29.46;101027.31;144156;612;131020;-67
2021/07/25 11:25:43;;;;;;;;;12.25;12.25;;;;;33.26;29.22;101024.81;144151;579;131913;-66
2021/07/25 11:28:48;;;;;;;;;9.00;9.00;;;;;32.82;28.62;101015.50;144176;671;132008;-67
2021/07/25 11:31:42;;;;;;;;;14.00;13.50;;;;;32.90;29.73;101014.56;144145;610;132024;-66
2021/07/25 11:34:39;;;;;;;;;13.00;13.00;;;;;33.26;28.97;101021.25;144170;582;132008;-65
2021/07/25 11:37:43;;;;;;;;;14.25;14.25;;;;;32.70;30.42;101027.81;144157;618;131912;-66
2021/07/25 11:40:37;;;;;;;;;15.25;14.75;;;;;32.41;30.27;101034.78;144174;625;132008;-66
2021/07/25 11:43:30;;;;;;;;;11.50;11.50;;;;;32.36;29.98;101039.91;144161;583;132010;-65
2021/07/25 11:46:48;;;;;;;;;8.00;8.00;;;;;32.66;29.80;101031.91;144179;575;131020;-66
2021/07/25 11:49:43;;;;;;;;;11.00;11.00;;;;;32.74;29.71;101029.16;144152;607;132012;-66
2021/07/25 11:52:35;;;;;;;;;12.50;12.25;;;;;32.68;30.21;101021.69;144161;579;132008;-66
2021/07/25 11:55:33;;;;;;;;;13.00;11.75;;;;;32.73;29.59;101027.47;144149;613;132012;-66
2021/07/25 11:58:26;;;;;;;;;13.00;13.00;;;;;33.59;28.29;101024.47;144180;578;131020;-66
2021/07/25 12:01:20;;;;;;;;;9.00;9.00;;;;;34.04;27.53;101021.75;144152;571;132013;-66
2021/07/25 12:04:44;;;;;;;;;12.00;12.00;;;;;33.32;27.93;101013.19;144175;581;131020;-65
2021/07/25 12:07:44;;;;;;;;;13.50;12.75;;;;;33.97;28.16;101012.63;144149;584;132010;-65
2021/07/25 12:10:36;;;;;;;;;15.00;15.00;;;;;33.45;28.13;101020.72;144168;571;132008;-65
2021/07/25 12:13:29;;;;;;;;;8.75;8.75;;;;;33.85;28.27;101023.19;144163;587;132010;-65
2021/07/25 12:16:21;;;;;;;;;12.00;12.00;;;;;33.67;29.20;101012.66;144168;585;132008;-68
2021/07/25 12:19:17;;;;;;;;;2.75;2.50;;;;;32.82;29.52;101004.62;144154;637;131017;-65
2021/07/25 12:22:15;;;;;;;;;10.25;10.25;;;;;33.22;29.00;101005.25;144151;646;132008;-66
2021/07/25 12:25:10;;;;;;;;;10.00;10.00;;;;;33.21;28.88;101009.00;144152;654;131016;-66
2021/07/25 12:28:28;;;;;;;;;13.50;12.25;;;;;34.04;27.89;100991.78;144177;596;131020;-65
2021/07/25 12:31:20;;;;;;;;;12.25;12.25;;;;;33.15;29.11;101009.75;144154;564;132010;-65
2021/07/25 12:34:12;;;;;;;;;12.50;11.50;;;;;33.31;29.39;101007.94;144172;579;131020;-67
2021/07/25 12:37:04;;;;;;;;;13.00;13.00;;;;;33.17;29.74;101012.28;144150;636;131913;-67
2021/07/25 12:40:18;;;;;;;;;12.25;12.25;;;;;33.15;28.66;101001.59;144176;588;132009;-66
2021/07/25 12:43:10;;;;;;;;;14.75;14.75;;;;;33.51;28.89;101002.78;144164;597;131016;-66
2021/07/25 12:46:07;;;;;;;;;12.25;12.25;;;;;33.90;28.01;101007.97;144169;632;132009;-66
2021/07/25 12:49:07;;;;;;;;;11.75;10.75;;;;;33.72;29.32;101004.75;144155;575;132010;-67
2021/07/25 12:51:59;;;;;;;;;11.25;11.25;;;;;33.18;29.62;101000.41;144148;568;132008;-66
2021/07/25 12:54:52;;;;;;;;;11.75;11.00;;;;;34.33;27.13;100988.16;144154;656;131030;-66
2021/07/25 12:57:44;;;;;;;;;14.00;13.00;;;;;34.30;27.46;100999.44;144167;602;132012;-66
2021/07/25 13:00:47;;;;;;;;;13.50;13.50;;;;;33.72;28.78;100992.00;144149;588;132010;-66
2021/07/25 13:03:45;;;;;;;;;13.00;13.00;;;;;32.88;30.80;100994.88;144174;563;131021;-66
2021/07/25 13:06:47;;;;;;;;;11.00;11.00;;;;;33.26;30.72;100994.91;144150;665;132912;-68
2021/07/25 13:09:39;;;;;;;;;13.75;13.75;;;;;33.98;29.32;100998.00;144170;599;132008;-67